createdAt,value
2022-10-19T00:01:30.531Z,6.13
2022-10-19T00:03:57.053Z,5.72
2022-10-19T00:06:26.548Z,4.75
2022-10-19T00:08:54.836Z,5.93
2022-10-19T00:11:21.822Z,8.20
2022-10-19T00:13:48.278Z,6.88
2022-10-19T00:16:16.927Z,7.40
2022-10-19T00:18:44.903Z,7.32
2022-10-19T00:21:16.929Z,9.23
2022-10-19T00:23:44.184Z,6.93
2022-10-19T00:26:11.152Z,6.68
2022-10-19T00:28:37.898Z,7.35
2022-10-19T00:31:06.245Z,6.80
2022-10-19T00:33:33.345Z,5.88
2022-10-19T00:35:59.823Z,7.60
2022-10-19T00:38:26.421Z,8.25
2022-10-19T00:40:53.078Z,8.98
2022-10-19T00:43:29.933Z,12.57
2022-10-19T00:45:56.384Z,6.55
2022-10-19T00:48:27.407Z,6.70
2022-10-19T00:50:56.414Z,6.65
2022-10-19T00:53:26.212Z,5.93
2022-10-19T00:55:52.929Z,5.88
2022-10-19T00:58:19.645Z,5.30
2022-10-19T01:00:46.233Z,7.20
2022-10-19T01:03:14.000Z,9.73
2022-10-19T01:05:41.149Z,4.43
2022-10-19T01:08:08.874Z,7.80
2022-10-19T01:10:48.883Z,5.60
2022-10-19T01:13:34.201Z,6.13
2022-10-19T01:16:14.985Z,5.97
2022-10-19T01:18:50.670Z,5.32
2022-10-19T01:21:39.809Z,5.53
2022-10-19T01:24:25.119Z,7.30
2022-10-19T01:27:21.832Z,7.40
2022-10-19T01:29:54.790Z,4.72
2022-10-19T01:32:38.968Z,8.85
2022-10-19T01:35:14.630Z,4.97
2022-10-19T01:37:55.390Z,6.22
2022-10-19T01:40:42.652Z,4.75
2022-10-19T01:43:21.995Z,3.78
2022-10-19T01:46:23.554Z,4.47
2022-10-19T01:49:00.776Z,6.07
2022-10-19T01:51:31.859Z,3.75
2022-10-19T01:54:04.118Z,4.05
2022-10-19T01:56:32.631Z,4.90
2022-10-19T01:59:03.940Z,3.35
2022-10-19T02:01:34.425Z,4.43
2022-10-19T02:04:02.371Z,5.55
2022-10-19T02:06:28.897Z,5.90
2022-10-19T02:08:55.804Z,5.13
2022-10-19T02:11:23.070Z,6.78
2022-10-19T02:14:03.978Z,5.13
2022-10-19T02:16:34.674Z,4.70
2022-10-19T02:19:03.080Z,4.32
2022-10-19T02:21:29.558Z,5.97
2022-10-19T02:23:55.980Z,5.65
2022-10-19T02:26:22.710Z,5.90
2022-10-19T02:28:49.877Z,6.13
2022-10-19T02:31:16.660Z,7.07
2022-10-19T02:33:43.225Z,8.65
2022-10-19T02:36:09.677Z,4.68
2022-10-19T02:38:36.316Z,4.18
2022-10-19T02:41:24.272Z,6.70
2022-10-19T02:43:56.793Z,7.00
2022-10-19T02:46:34.840Z,3.47
2022-10-19T02:49:04.164Z,4.78
2022-10-19T02:51:30.556Z,5.53
2022-10-19T02:53:59.001Z,5.75
2022-10-19T02:56:28.016Z,6.90
2022-10-19T02:58:54.478Z,7.45
2022-10-19T03:01:21.229Z,6.45
2022-10-19T03:03:47.808Z,4.82
2022-10-19T03:06:14.629Z,3.55
2022-10-19T03:08:41.123Z,4.95
2022-10-19T03:11:07.720Z,3.80
2022-10-19T03:13:34.213Z,5.82
2022-10-19T03:16:08.887Z,3.67
2022-10-19T03:18:35.353Z,2.80
2022-10-19T03:21:07.111Z,3.15
2022-10-19T03:23:34.214Z,4.65
2022-10-19T03:26:01.078Z,4.75
2022-10-19T03:28:29.051Z,3.40
2022-10-19T03:30:55.631Z,5.22
2022-10-19T03:33:22.516Z,4.10
2022-10-19T03:35:49.262Z,3.33
2022-10-19T03:38:16.133Z,2.53
2022-10-19T03:40:42.924Z,5.45
2022-10-19T03:43:09.395Z,4.22
2022-10-19T03:45:35.838Z,4.88
2022-10-19T03:48:02.318Z,3.17
2022-10-19T03:50:28.734Z,5.00
2022-10-19T03:55:25.113Z,4.65
2022-10-19T03:57:51.569Z,8.98
2022-10-19T04:00:18.085Z,6.28
2022-10-19T04:02:44.609Z,5.57
2022-10-19T04:05:11.103Z,4.40
2022-10-19T04:07:37.598Z,5.70
2022-10-19T04:10:04.364Z,10.73
2022-10-19T04:12:30.848Z,5.07
2022-10-19T04:14:57.900Z,5.85
2022-10-19T04:17:25.388Z,6.88
2022-10-19T04:19:51.847Z,6.72
2022-10-19T04:22:18.325Z,7.38
2022-10-19T04:24:44.769Z,9.00
2022-10-19T04:27:11.229Z,7.85
2022-10-19T04:29:37.805Z,6.57
2022-10-19T04:32:04.329Z,4.57
2022-10-19T04:34:30.846Z,4.55
2022-10-19T04:36:59.527Z,4.95
2022-10-19T04:39:26.164Z,5.28
2022-10-19T04:41:52.778Z,5.38
2022-10-19T04:44:19.273Z,5.28
2022-10-19T04:46:45.780Z,11.60
2022-10-19T04:49:15.155Z,5.38
2022-10-19T04:51:44.410Z,8.73
2022-10-19T04:54:10.870Z,3.70
2022-10-19T04:56:37.321Z,8.13
2022-10-19T04:59:03.825Z,5.47
2022-10-19T05:01:31.993Z,5.53
2022-10-19T05:04:00.571Z,4.05
2022-10-19T05:06:27.642Z,3.53
2022-10-19T05:08:54.468Z,7.03
2022-10-19T05:11:21.231Z,6.28
2022-10-19T05:13:48.447Z,5.07
2022-10-19T05:16:20.401Z,4.95
2022-10-19T05:18:52.083Z,5.60
2022-10-19T05:21:20.557Z,5.63
2022-10-19T05:23:50.384Z,5.07
2022-10-19T05:26:19.538Z,6.28
2022-10-19T05:29:01.793Z,5.45
2022-10-19T05:31:31.172Z,7.47
2022-10-19T05:33:58.176Z,5.90
2022-10-19T05:36:29.907Z,4.15
2022-10-19T05:38:57.757Z,6.40
2022-10-19T05:41:25.952Z,5.55
2022-10-19T05:43:57.175Z,7.05
2022-10-19T05:46:25.283Z,4.30
2022-10-19T05:48:51.759Z,4.25
2022-10-19T05:51:21.412Z,4.25
2022-10-19T05:53:48.281Z,5.10
2022-10-19T05:56:18.923Z,9.60
2022-10-19T05:58:45.839Z,6.55
2022-10-19T06:01:13.997Z,9.82
2022-10-19T06:03:40.714Z,6.10
2022-10-19T06:06:08.742Z,7.10
2022-10-19T06:08:35.800Z,6.43
2022-10-19T06:11:09.801Z,7.78
2022-10-19T06:13:37.517Z,6.72
2022-10-19T06:16:05.369Z,7.65
2022-10-19T06:18:32.238Z,5.07
2022-10-19T06:21:07.553Z,6.32
2022-10-19T06:23:35.263Z,4.70
2022-10-19T06:26:08.075Z,8.43
2022-10-19T06:28:35.534Z,7.90
2022-10-19T06:31:03.967Z,9.98
2022-10-19T06:33:32.358Z,7.80
2022-10-19T06:36:12.642Z,6.28
2022-10-19T06:38:39.629Z,10.75
2022-10-19T06:41:06.897Z,8.45
2022-10-19T06:43:34.369Z,9.73
2022-10-19T06:46:09.115Z,10.48
2022-10-19T06:48:35.730Z,9.38
2022-10-19T06:51:06.312Z,10.80
2022-10-19T06:53:34.468Z,8.05
2022-10-19T06:56:04.749Z,7.38
2022-10-19T06:58:34.475Z,7.53
2022-10-19T07:01:02.305Z,9.82
2022-10-19T07:03:30.006Z,10.15
2022-10-19T07:05:59.418Z,11.98
2022-10-19T07:08:27.703Z,12.75
2022-10-19T07:10:56.950Z,13.82
2022-10-19T07:13:24.401Z,15.13
2022-10-19T07:15:59.915Z,20.80
2022-10-19T07:18:27.463Z,11.20
2022-10-19T07:20:58.858Z,10.73
2022-10-19T07:23:27.585Z,15.50
2022-10-19T07:25:55.336Z,10.35
2022-10-19T07:28:22.285Z,10.80
2022-10-19T07:30:48.752Z,12.50
2022-10-19T07:33:15.235Z,12.68
2022-10-19T07:35:41.709Z,7.35
2022-10-19T07:38:08.576Z,8.75
2022-10-19T07:40:35.585Z,12.05
2022-10-19T07:43:02.244Z,12.13
2022-10-19T07:45:29.955Z,11.07
2022-10-19T07:47:56.541Z,11.80
2022-10-19T07:50:24.683Z,14.23
2022-10-19T07:52:54.678Z,10.13
2022-10-19T07:55:21.228Z,14.15
2022-10-19T07:57:48.912Z,11.45
2022-10-19T08:00:18.421Z,10.70
2022-10-19T08:03:00.100Z,7.20
2022-10-19T08:05:35.380Z,11.80
2022-10-19T08:08:01.982Z,11.10
2022-10-19T08:10:28.593Z,12.48
2022-10-19T08:12:55.026Z,8.20
2022-10-19T08:15:21.661Z,8.25
2022-10-19T08:17:48.097Z,8.43
2022-10-19T08:20:14.575Z,10.27
2022-10-19T08:22:41.923Z,9.93
2022-10-19T08:25:08.560Z,12.43
2022-10-19T08:30:01.412Z,15.90
2022-10-19T08:32:27.852Z,12.60
2022-10-19T08:34:54.447Z,13.40
2022-10-19T08:37:40.207Z,8.85
2022-10-19T08:40:22.930Z,9.95
2022-10-19T08:43:12.022Z,9.38
2022-10-19T08:45:58.859Z,9.20
2022-10-19T08:48:29.539Z,14.95
2022-10-19T08:50:57.988Z,17.17
2022-10-19T08:53:33.557Z,17.05
2022-10-19T08:56:49.788Z,8.95
2022-10-19T08:59:15.116Z,9.15
2022-10-19T09:01:50.885Z,9.63
2022-10-19T09:04:24.123Z,7.45
2022-10-19T09:07:00.200Z,11.30
2022-10-19T09:09:30.051Z,13.60
2022-10-19T09:12:02.843Z,9.70
2022-10-19T09:14:38.575Z,9.68
2022-10-19T09:17:13.565Z,10.23
2022-10-19T09:19:40.151Z,10.18
2022-10-19T09:22:12.566Z,10.43
2022-10-19T09:24:47.601Z,8.77
2022-10-19T09:27:25.090Z,10.25
2022-10-19T09:29:56.899Z,13.98
2022-10-19T09:32:42.214Z,14.85
2022-10-19T09:35:38.907Z,9.23
2022-10-19T09:38:07.144Z,9.93
2022-10-19T09:40:35.059Z,9.32
2022-10-19T09:43:18.966Z,15.15
2022-10-19T09:46:02.641Z,13.77
2022-10-19T09:48:45.776Z,10.88
2022-10-19T09:51:14.536Z,8.38
2022-10-19T09:53:45.739Z,11.00
2022-10-19T09:56:24.627Z,12.95
2022-10-19T09:58:59.711Z,10.35
2022-10-19T10:01:43.068Z,11.32
2022-10-19T10:04:14.944Z,12.23
2022-10-19T10:06:43.866Z,14.25
2022-10-19T10:09:17.453Z,11.75
2022-10-19T10:11:48.079Z,11.00
2022-10-19T10:14:17.425Z,11.65
2022-10-19T10:16:43.922Z,11.60
2022-10-19T10:19:15.579Z,8.63
2022-10-19T10:21:55.620Z,12.65
2022-10-19T10:24:25.477Z,11.30
2022-10-19T10:26:55.926Z,10.95
2022-10-19T10:29:36.939Z,12.70
2022-10-19T10:32:05.564Z,12.32
2022-10-19T10:34:45.928Z,15.35
2022-10-19T10:37:22.044Z,12.82
2022-10-19T10:39:53.731Z,13.98
2022-10-19T10:42:28.460Z,11.00
2022-10-19T10:44:58.696Z,11.57
2022-10-19T10:50:22.105Z,16.73
2022-10-19T10:55:30.055Z,9.55
2022-10-19T10:58:15.554Z,11.13
2022-10-19T11:00:44.048Z,12.05
2022-10-19T11:03:20.153Z,14.45
2022-10-19T11:06:05.387Z,9.88
2022-10-19T11:08:59.114Z,11.95
2022-10-19T11:11:57.174Z,11.35
2022-10-19T11:14:30.077Z,9.15
2022-10-19T11:17:02.504Z,15.30
2022-10-19T11:19:44.434Z,8.25
2022-10-19T11:22:37.962Z,10.02
2022-10-19T11:25:39.849Z,9.82
2022-10-19T11:28:19.470Z,10.55
2022-10-19T11:31:07.164Z,10.73
2022-10-19T11:33:54.054Z,12.88
2022-10-19T11:36:42.019Z,11.85
2022-10-19T11:39:24.443Z,14.32
2022-10-19T11:42:09.177Z,8.80
2022-10-19T11:44:41.532Z,9.60
2022-10-19T11:47:33.123Z,9.50
2022-10-19T11:50:13.204Z,11.40
2022-10-19T11:52:48.363Z,8.18
2022-10-19T11:55:44.145Z,11.45
2022-10-19T11:58:48.400Z,8.52
2022-10-19T12:01:33.612Z,9.38
2022-10-19T12:04:12.110Z,10.73
2022-10-19T12:06:44.251Z,11.90
2022-10-19T12:09:10.633Z,8.60
2022-10-19T12:11:47.455Z,9.02
2022-10-19T12:14:20.319Z,10.63
2022-10-19T12:16:51.802Z,10.90
2022-10-19T12:19:41.530Z,8.43
2022-10-19T12:22:22.365Z,8.43
2022-10-19T12:24:50.906Z,6.55
2022-10-19T12:27:24.415Z,11.38
2022-10-19T12:29:52.301Z,7.35
2022-10-19T12:32:24.391Z,15.13
2022-10-19T12:38:05.492Z,10.00
2022-10-19T12:40:39.935Z,12.27
2022-10-19T12:43:15.179Z,9.07
2022-10-19T12:45:48.466Z,8.13
2022-10-19T12:48:20.464Z,17.33
2022-10-19T12:50:50.090Z,9.65
2022-10-19T12:56:07.295Z,10.93
2022-10-19T12:58:47.575Z,8.35
2022-10-19T13:01:24.342Z,6.72
2022-10-19T13:04:07.380Z,8.73
2022-10-19T13:06:36.953Z,5.75
2022-10-19T13:09:07.013Z,7.32
2022-10-19T13:14:15.068Z,7.82
2022-10-19T13:16:57.401Z,7.85
2022-10-19T13:19:24.628Z,8.98
2022-10-19T13:21:53.082Z,8.18
2022-10-19T13:24:32.977Z,7.97
2022-10-19T13:27:02.582Z,7.20
2022-10-19T13:29:40.760Z,7.38
2022-10-19T13:32:35.676Z,7.72
2022-10-19T13:38:10.236Z,9.57
2022-10-19T13:40:39.242Z,8.48
2022-10-19T13:43:05.800Z,7.93
2022-10-19T13:45:32.358Z,10.70
2022-10-19T13:48:14.601Z,7.45
2022-10-19T13:50:48.346Z,11.15
2022-10-19T13:53:22.208Z,11.45
2022-10-19T13:56:01.908Z,10.68
2022-10-19T13:58:34.402Z,12.45
2022-10-19T14:01:36.442Z,9.13
2022-10-19T14:04:34.956Z,8.45
2022-10-19T14:07:10.861Z,10.05
2022-10-19T14:09:55.536Z,8.77
2022-10-19T14:12:25.451Z,9.25
2022-10-19T14:14:53.549Z,8.52
2022-10-19T14:17:33.880Z,7.35
2022-10-19T14:20:01.022Z,7.50
2022-10-19T14:22:33.478Z,10.95
2022-10-19T14:25:07.387Z,11.50
2022-10-19T14:27:35.134Z,9.38
2022-10-19T14:30:02.702Z,10.95
2022-10-19T14:32:30.218Z,10.52
2022-10-19T14:37:31.423Z,7.90
2022-10-19T14:40:26.441Z,9.52
2022-10-19T14:42:55.394Z,8.02
2022-10-19T14:45:24.973Z,6.57
2022-10-19T14:48:05.856Z,10.85
2022-10-19T14:50:45.006Z,10.40
2022-10-19T14:53:45.919Z,12.90
2022-10-19T14:56:34.640Z,9.35
2022-10-19T14:59:03.560Z,7.85
2022-10-19T15:01:30.263Z,8.63
2022-10-19T15:03:56.901Z,10.65
2022-10-19T15:06:42.313Z,9.40
2022-10-19T15:09:37.432Z,7.97
2022-10-19T15:12:16.767Z,8.90
2022-10-19T15:14:44.458Z,6.15
2022-10-19T15:17:29.540Z,8.88
2022-10-19T15:20:01.891Z,7.32
2022-10-19T15:22:31.521Z,7.82
2022-10-19T15:24:58.238Z,8.88
2022-10-19T15:27:32.142Z,8.68
2022-10-19T15:30:00.920Z,8.77
2022-10-19T15:32:35.499Z,7.55
2022-10-19T15:35:19.353Z,7.70
2022-10-19T15:37:49.087Z,10.75
2022-10-19T15:40:36.768Z,6.00
2022-10-19T15:43:35.386Z,9.60
2022-10-19T15:46:13.361Z,4.85
2022-10-19T15:48:55.441Z,6.25
2022-10-19T15:51:25.171Z,6.25
2022-10-19T15:54:03.617Z,4.68
2022-10-19T15:56:32.444Z,10.55
2022-10-19T15:59:01.469Z,7.47
2022-10-19T16:01:31.424Z,11.02
2022-10-19T16:03:58.231Z,9.98
2022-10-19T16:06:28.134Z,8.70
2022-10-19T16:08:55.151Z,6.88
2022-10-19T16:11:25.625Z,9.25
2022-10-19T16:14:00.101Z,9.07
2022-10-19T16:16:35.779Z,5.28
2022-10-19T16:19:02.450Z,7.25
2022-10-19T16:21:34.724Z,6.90
2022-10-19T16:24:01.521Z,7.13
2022-10-19T16:26:28.397Z,7.40
2022-10-19T16:28:55.642Z,12.80
2022-10-19T16:31:22.889Z,9.50
2022-10-19T16:33:49.493Z,9.20
2022-10-19T16:36:18.920Z,9.93
2022-10-19T16:38:45.604Z,8.75
2022-10-19T16:41:12.601Z,12.45
2022-10-19T16:43:39.384Z,8.55
2022-10-19T16:46:06.179Z,7.13
2022-10-19T16:48:33.756Z,8.20
2022-10-19T16:51:06.659Z,8.60
2022-10-19T16:53:37.713Z,9.15
2022-10-19T16:56:10.074Z,6.78
2022-10-19T16:58:37.308Z,9.93
2022-10-19T17:01:11.556Z,4.30
2022-10-19T17:03:38.276Z,8.05
2022-10-19T17:06:06.064Z,8.00
2022-10-19T17:08:37.124Z,5.80
2022-10-19T17:11:25.492Z,9.18
2022-10-19T17:13:54.475Z,5.13
2022-10-19T17:16:22.162Z,9.48
2022-10-19T17:18:49.502Z,6.45
2022-10-19T17:21:19.478Z,11.18
2022-10-19T17:23:46.702Z,8.52
2022-10-19T17:26:13.647Z,6.95
2022-10-19T17:28:40.788Z,10.48
2022-10-19T17:31:10.354Z,10.13
2022-10-19T17:33:37.643Z,14.68
2022-10-19T17:36:12.196Z,7.72
2022-10-19T17:38:39.366Z,9.05
2022-10-19T17:41:09.920Z,5.03
2022-10-19T17:46:05.636Z,7.20
2022-10-19T17:48:33.523Z,9.85
2022-10-19T17:51:02.166Z,5.85
2022-10-19T17:53:29.466Z,9.35
2022-10-19T17:55:58.550Z,10.50
2022-10-19T17:58:25.042Z,7.90
2022-10-19T18:00:59.128Z,8.25
2022-10-19T18:03:28.987Z,9.70
2022-10-19T18:06:05.608Z,9.43
2022-10-19T18:08:37.297Z,11.55
2022-10-19T18:11:12.501Z,7.45
2022-10-19T18:13:39.808Z,8.98
2022-10-19T18:16:09.238Z,7.05
2022-10-19T18:18:38.050Z,8.50
2022-10-19T18:21:11.332Z,9.52
2022-10-19T18:23:38.995Z,8.88
2022-10-19T18:26:10.900Z,6.38
2022-10-19T18:28:38.004Z,10.98
2022-10-19T18:31:09.227Z,9.02
2022-10-19T18:33:36.584Z,7.78
2022-10-19T18:36:03.478Z,10.13
2022-10-19T18:38:29.994Z,7.95
2022-10-19T18:41:08.006Z,8.93
2022-10-19T18:43:34.508Z,7.97
2022-10-19T18:46:01.148Z,7.65
2022-10-19T18:48:29.009Z,9.82
2022-10-19T18:50:57.219Z,6.03
2022-10-19T18:53:24.533Z,11.35
2022-10-19T18:55:58.529Z,7.72
2022-10-19T18:58:25.559Z,11.40
2022-10-19T19:01:24.708Z,8.07
2022-10-19T19:03:55.362Z,13.48
2022-10-19T19:06:29.274Z,11.35
2022-10-19T19:08:57.193Z,8.88
2022-10-19T19:11:34.446Z,8.70
2022-10-19T19:14:26.622Z,12.45
2022-10-19T19:16:53.143Z,13.88
2022-10-19T19:19:20.054Z,12.20
2022-10-19T19:21:46.626Z,19.63
2022-10-19T19:24:16.954Z,7.70
2022-10-19T19:26:48.237Z,8.25
2022-10-19T19:29:14.747Z,14.27
2022-10-19T19:31:41.382Z,8.90
2022-10-19T19:34:09.416Z,8.18
2022-10-19T19:36:38.043Z,11.70
2022-10-19T19:39:04.745Z,14.13
2022-10-19T19:41:33.981Z,11.25
2022-10-19T19:44:00.623Z,9.98
2022-10-19T19:46:27.142Z,13.18
2022-10-19T19:48:59.943Z,10.38
2022-10-19T19:51:27.614Z,10.93
2022-10-19T19:53:54.082Z,10.95
2022-10-19T19:56:20.897Z,9.93
2022-10-19T19:58:47.700Z,9.43
2022-10-19T20:01:17.212Z,8.65
2022-10-19T20:03:43.969Z,11.82
2022-10-19T20:06:10.937Z,10.63
2022-10-19T20:08:38.009Z,7.97
2022-10-19T20:11:10.077Z,9.45
2022-10-19T20:13:37.300Z,9.13
2022-10-19T20:16:12.637Z,12.57
2022-10-19T20:18:47.099Z,10.68
2022-10-19T20:21:14.446Z,13.10
2022-10-19T20:23:44.438Z,26.92
2022-10-19T20:26:22.063Z,14.45
2022-10-19T20:28:49.524Z,16.73
2022-10-19T20:31:17.834Z,17.17
2022-10-19T20:33:44.663Z,12.43
2022-10-19T20:36:23.215Z,6.28
2022-10-19T20:38:52.405Z,10.95
2022-10-19T20:41:20.675Z,15.63
2022-10-19T20:43:47.721Z,16.85
2022-10-19T20:46:21.985Z,7.93
2022-10-19T20:48:48.757Z,14.27
2022-10-19T20:51:30.939Z,10.55
2022-10-19T20:54:00.582Z,10.95
2022-10-19T20:56:29.766Z,7.40
2022-10-19T20:58:56.339Z,9.20
2022-10-19T21:01:23.407Z,8.32
2022-10-19T21:03:53.625Z,9.27
2022-10-19T21:06:21.456Z,11.57
2022-10-19T21:08:48.741Z,10.05
2022-10-19T21:11:16.493Z,16.45
2022-10-19T21:13:43.770Z,10.57
2022-10-19T21:16:15.324Z,13.57
2022-10-19T21:18:42.492Z,14.63
2022-10-19T21:21:36.474Z,9.18
2022-10-19T21:24:06.334Z,10.25
2022-10-19T21:26:35.148Z,12.80
2022-10-19T21:29:02.876Z,16.77
2022-10-19T21:31:30.733Z,14.70
2022-10-19T21:33:57.232Z,10.50
2022-10-19T21:36:27.754Z,15.65
2022-10-19T21:38:54.164Z,9.65
2022-10-19T21:41:25.353Z,11.70
2022-10-19T21:43:53.310Z,14.45
2022-10-19T21:46:21.256Z,12.45
2022-10-19T21:48:48.719Z,11.95
2022-10-19T21:51:24.149Z,11.88
2022-10-19T21:53:50.928Z,7.22
2022-10-19T21:56:17.412Z,10.93
2022-10-19T21:58:45.389Z,13.27
2022-10-19T22:01:12.033Z,9.45
2022-10-19T22:03:38.544Z,10.98
2022-10-19T22:06:05.083Z,16.73
2022-10-19T22:08:31.589Z,10.60
2022-10-19T22:10:58.071Z,13.55
2022-10-19T22:13:24.583Z,11.13
2022-10-19T22:15:51.045Z,11.60
2022-10-19T22:18:17.449Z,13.10
2022-10-19T22:20:43.914Z,14.90
2022-10-19T22:23:10.392Z,11.73
2022-10-19T22:25:36.868Z,12.23
2022-10-19T22:28:03.588Z,11.15
2022-10-19T22:30:30.071Z,13.20
2022-10-19T22:32:56.774Z,10.93
2022-10-19T22:35:23.295Z,11.27
2022-10-19T22:37:49.752Z,11.10
2022-10-19T22:40:16.253Z,13.35
2022-10-19T22:42:42.735Z,11.70
2022-10-19T22:45:09.302Z,14.80
2022-10-19T22:47:35.804Z,17.35
2022-10-19T22:50:02.267Z,13.18
2022-10-19T22:52:28.729Z,16.52
2022-10-19T22:54:55.240Z,12.65
2022-10-19T22:57:21.655Z,9.93
2022-10-19T22:59:48.071Z,10.60
2022-10-19T23:02:14.505Z,12.23
2022-10-19T23:04:41.004Z,9.20
2022-10-19T23:07:07.723Z,13.40
2022-10-19T23:09:34.179Z,12.40
2022-10-19T23:12:00.647Z,17.67
2022-10-19T23:14:27.075Z,16.23
2022-10-19T23:16:53.584Z,13.27
2022-10-19T23:19:20.145Z,13.63
2022-10-19T23:21:46.643Z,13.23
2022-10-19T23:24:13.104Z,16.08
2022-10-19T23:26:39.517Z,12.57
2022-10-19T23:29:05.961Z,17.88
2022-10-19T23:31:33.630Z,17.20
2022-10-19T23:34:00.237Z,14.77
2022-10-19T23:36:28.875Z,14.27
2022-10-19T23:38:57.880Z,23.98
2022-10-19T23:46:40.204Z,15.38
2022-10-19T23:51:47.942Z,19.77
2022-10-19T23:54:14.369Z,17.05
2022-10-19T23:56:40.812Z,17.08
2022-10-19T23:59:09.634Z,24.10
